Time;durP1;ratioP1;P1;durP2;ratioP2;P2;SDS_P1;SDS_P2;PMS_P1;PMS_P2;Temp;Humidity;BMP_temperature;BMP_pressure;BME280_temperature;BME280_humidity;BME280_pressure;Samples;Min_cycle;Max_cycle;Signal;HPM_P1;HPM_P2
2024/03/02 05:02:38;;;;;;;19.98;11.35;;;7.80;99.90;;;;;;4930385;29;20261;-70
2024/03/02 05:05:05;;;;;;;15.55;11.02;;;7.70;99.90;;;;;;4935330;29;20214;-69
2024/03/02 05:07:32;;;;;;;21.40;12.45;;;7.80;99.90;;;;;;4939779;29;20214;-69
2024/03/02 05:09:59;;;;;;;17.83;10.23;;;7.80;99.90;;;;;;4933596;29;20563;-69
2024/03/02 05:12:49;;;;;;;20.60;10.38;;;7.70;99.90;;;;;;4939079;29;20252;-70
2024/03/02 05:15:16;;;;;;;14.98;11.02;;;7.70;99.90;;;;;;4937876;29;20212;-69
2024/03/02 05:17:44;;;;;;;16.45;8.90;;;7.60;99.90;;;;;;4934933;29;20215;-69
2024/03/02 05:20:11;;;;;;;20.33;11.63;;;7.60;99.90;;;;;;4934731;29;20229;-69
2024/03/02 05:22:39;;;;;;;19.15;10.05;;;7.70;99.90;;;;;;4936322;29;20602;-69
2024/03/02 05:25:07;;;;;;;16.25;10.27;;;7.60;99.90;;;;;;4936223;29;20207;-70
2024/03/02 05:27:34;;;;;;;18.85;11.00;;;7.60;99.90;;;;;;4936267;29;20218;-70
2024/03/02 05:30:00;;;;;;;20.02;11.60;;;7.60;99.90;;;;;;4932123;29;20203;-70
2024/03/02 05:32:27;;;;;;;15.98;8.88;;;7.60;99.90;;;;;;4936888;29;20834;-69
2024/03/02 05:34:55;;;;;;;19.98;12.05;;;7.60;99.90;;;;;;4935626;29;20706;-69
2024/03/02 05:37:22;;;;;;;17.20;8.80;;;7.50;99.90;;;;;;4937843;29;20685;-69
2024/03/02 05:39:49;;;;;;;18.02;10.00;;;7.50;99.90;;;;;;4934142;29;20227;-68
2024/03/02 05:42:16;;;;;;;19.73;10.02;;;7.60;99.90;;;;;;4930768;29;20231;-68
2024/03/02 05:44:43;;;;;;;13.35;9.05;;;7.60;99.90;;;;;;4937439;29;20202;-69
2024/03/02 05:47:10;;;;;;;15.30;9.65;;;7.60;99.90;;;;;;4935765;29;20965;-69
2024/03/02 05:49:36;;;;;;;19.33;10.57;;;7.60;99.90;;;;;;4935747;29;20207;-69
2024/03/02 05:52:05;;;;;;;14.20;10.15;;;7.60;99.90;;;;;;4938104;29;20242;-69
2024/03/02 05:54:31;;;;;;;19.02;9.25;;;7.70;99.90;;;;;;4934789;29;20231;-68
2024/03/02 05:57:16;;;;;;;20.95;11.77;;;7.60;99.90;;;;;;4931813;29;20213;-69
2024/03/02 05:59:43;;;;;;;36.83;21.70;;;7.70;99.90;;;;;;4935054;29;20306;-69
2024/03/02 06:02:10;;;;;;;62.17;27.48;;;7.60;99.90;;;;;;4937038;29;20381;-70
2024/03/02 06:04:36;;;;;;;29.02;15.15;;;7.50;99.90;;;;;;4936687;29;20583;-70
2024/03/02 06:07:05;;;;;;;22.17;12.65;;;7.50;99.90;;;;;;4935715;29;20215;-70
2024/03/02 06:09:31;;;;;;;27.08;14.48;;;7.50;99.90;;;;;;4931679;29;20199;-69
2024/03/02 06:11:58;;;;;;;15.77;10.55;;;7.50;99.90;;;;;;4934349;29;20246;-69
2024/03/02 06:14:25;;;;;;;26.25;12.90;;;7.50;99.90;;;;;;4935367;29;20221;-69
2024/03/02 06:16:51;;;;;;;21.85;12.80;;;7.60;99.90;;;;;;4935307;29;20221;-70
2024/03/02 06:19:18;;;;;;;16.42;11.20;;;7.60;99.90;;;;;;4936121;29;20665;-69
2024/03/02 06:21:45;;;;;;;27.05;12.27;;;7.60;99.90;;;;;;4930570;29;20342;-69
2024/03/02 06:24:13;;;;;;;18.73;9.57;;;7.50;99.90;;;;;;4936755;29;20207;-69
2024/03/02 06:26:40;;;;;;;18.33;11.80;;;7.50;99.90;;;;;;4930546;29;20217;-70
2024/03/02 06:29:07;;;;;;;14.23;9.20;;;7.60;99.90;;;;;;4936112;29;20219;-70
2024/03/02 06:31:35;;;;;;;22.50;11.77;;;7.60;99.90;;;;;;4935612;29;20718;-70
2024/03/02 06:34:03;;;;;;;25.67;14.00;;;7.70;99.90;;;;;;4931890;29;20222;-70
2024/03/02 06:36:29;;;;;;;23.23;11.70;;;7.70;99.90;;;;;;4935301;29;20298;-70
2024/03/02 06:38:56;;;;;;;19.70;12.52;;;7.70;99.90;;;;;;4933911;29;20223;-70
2024/03/02 06:41:24;;;;;;;27.80;12.30;;;7.70;99.90;;;;;;4930616;29;20235;-70
2024/03/02 06:43:59;;;;;;;26.90;11.65;;;7.70;99.90;;;;;;4942138;29;20235;-70
2024/03/02 06:46:25;;;;;;;17.83;10.50;;;7.70;99.90;;;;;;4937304;29;20217;-69
2024/03/02 06:48:52;;;;;;;26.48;9.90;;;7.70;99.90;;;;;;4938321;29;20211;-71
2024/03/02 06:51:19;;;;;;;18.55;11.65;;;7.80;99.90;;;;;;4939777;29;20223;-70
2024/03/02 06:53:46;;;;;;;28.08;12.65;;;7.80;99.90;;;;;;4934170;29;20216;-70
2024/03/02 06:56:13;;;;;;;27.13;11.50;;;7.80;99.90;;;;;;4932279;29;20975;-71
2024/03/02 06:58:42;;;;;;;27.73;13.45;;;7.80;99.90;;;;;;4934336;29;20212;-70
2024/03/02 07:01:09;;;;;;;18.98;12.00;;;7.80;99.90;;;;;;4931367;29;20288;-70
2024/03/02 07:03:36;;;;;;;25.00;13.15;;;7.90;99.90;;;;;;4935746;29;20219;-70
2024/03/02 07:06:03;;;;;;;22.67;14.35;;;7.90;99.90;;;;;;4935006;29;20223;-69
2024/03/02 07:08:30;;;;;;;24.15;12.80;;;8.00;99.90;;;;;;4933089;29;20216;-69
2024/03/02 07:10:57;;;;;;;19.95;12.07;;;8.00;99.90;;;;;;4933451;29;20268;-69
2024/03/02 07:13:23;;;;;;;17.02;10.10;;;8.00;99.90;;;;;;4932606;29;20216;-69
2024/03/02 07:16:19;;;;;;;21.10;12.65;;;8.00;99.90;;;;;;4936346;29;20206;-69
2024/03/02 07:18:51;;;;;;;18.08;11.20;;;8.00;99.90;;;;;;4935771;29;20291;-70
2024/03/02 07:21:17;;;;;;;22.45;11.25;;;8.00;99.90;;;;;;4929579;29;20657;-69
2024/03/02 07:23:44;;;;;;;21.90;11.80;;;8.00;99.90;;;;;;4931832;29;20220;-70
2024/03/02 07:26:11;;;;;;;18.13;10.18;;;8.00;99.90;;;;;;4933437;29;20231;-70
2024/03/02 07:28:37;;;;;;;16.88;8.80;;;8.10;99.90;;;;;;4934153;29;20217;-70
2024/03/02 07:31:06;;;;;;;16.92;11.98;;;8.10;99.90;;;;;;4934637;29;20572;-69
2024/03/02 07:33:32;;;;;;;17.30;11.70;;;8.20;99.90;;;;;;4933119;29;20221;-70
2024/03/02 07:36:01;;;;;;;20.92;11.10;;;8.20;99.90;;;;;;4932980;29;20210;-70
2024/03/02 07:38:28;;;;;;;21.25;11.55;;;8.20;99.90;;;;;;4933978;29;20216;-69
2024/03/02 07:40:55;;;;;;;20.85;12.80;;;8.30;99.90;;;;;;4933002;29;20261;-70
2024/03/02 07:43:22;;;;;;;19.48;11.00;;;8.40;99.90;;;;;;4932568;29;20205;-69
2024/03/02 07:45:49;;;;;;;20.83;11.77;;;8.40;99.90;;;;;;4933437;29;20549;-70
2024/03/02 07:48:17;;;;;;;19.42;11.23;;;8.40;99.90;;;;;;4932877;29;20225;-68
2024/03/02 07:50:44;;;;;;;21.48;13.57;;;8.50;99.90;;;;;;4929709;29;20263;-69
2024/03/02 07:53:11;;;;;;;22.33;12.32;;;8.60;99.90;;;;;;4932447;29;20692;-69
2024/03/02 07:55:38;;;;;;;26.50;14.30;;;8.60;99.90;;;;;;4931257;29;20273;-69
2024/03/02 07:58:05;;;;;;;25.45;16.20;;;8.70;99.90;;;;;;4933608;29;20561;-69
2024/03/02 08:00:32;;;;;;;26.33;15.40;;;8.70;99.90;;;;;;4933762;29;20245;-70
2024/03/02 08:02:58;;;;;;;21.63;12.27;;;8.70;99.90;;;;;;4933996;29;20229;-69
2024/03/02 08:05:27;;;;;;;18.75;12.40;;;8.80;99.90;;;;;;4931455;29;20285;-69
2024/03/02 08:07:53;;;;;;;22.35;12.80;;;8.80;99.90;;;;;;4927273;29;20228;-69
2024/03/02 08:10:20;;;;;;;22.98;12.95;;;8.90;99.90;;;;;;4931578;29;20247;-69
2024/03/02 08:12:47;;;;;;;20.25;10.20;;;8.90;99.90;;;;;;4930402;29;20657;-69
2024/03/02 08:15:13;;;;;;;21.02;12.48;;;9.00;99.90;;;;;;4932302;29;20228;-69
2024/03/02 08:17:44;;;;;;;24.38;14.55;;;9.20;99.90;;;;;;4933617;29;20209;-68
2024/03/02 08:20:12;;;;;;;25.80;11.55;;;9.30;99.90;;;;;;4936812;29;20699;-69
2024/03/02 08:22:41;;;;;;;13.55;9.73;;;9.40;99.90;;;;;;4931762;29;20206;-69
2024/03/02 08:25:09;;;;;;;16.50;11.02;;;9.40;99.90;;;;;;4940470;29;20852;-70
2024/03/02 08:27:36;;;;;;;22.25;13.00;;;9.50;99.90;;;;;;4931000;29;20213;-70
2024/03/02 08:30:06;;;;;;;16.23;9.43;;;9.50;99.90;;;;;;4931209;29;20213;-71
2024/03/02 08:32:32;;;;;;;32.75;17.05;;;9.50;99.90;;;;;;4931485;29;20241;-69
2024/03/02 08:34:59;;;;;;;25.38;13.63;;;9.60;99.90;;;;;;4931720;29;20237;-69
2024/03/02 08:37:26;;;;;;;17.98;9.75;;;9.70;99.90;;;;;;4931769;29;20210;-69
2024/03/02 08:39:54;;;;;;;17.95;12.18;;;9.80;99.90;;;;;;4931844;29;20215;-69
2024/03/02 08:42:21;;;;;;;29.15;16.55;;;9.90;99.90;;;;;;4927276;29;20696;-69
2024/03/02 08:44:48;;;;;;;27.35;11.40;;;9.90;99.90;;;;;;4929889;29;20218;-69
2024/03/02 08:47:15;;;;;;;19.85;12.85;;;10.00;99.90;;;;;;4930526;29;20209;-69
2024/03/02 08:49:42;;;;;;;22.45;14.00;;;10.10;99.90;;;;;;4931320;29;20211;-69
2024/03/02 08:52:09;;;;;;;20.40;10.50;;;10.10;99.90;;;;;;4931378;29;20272;-69
2024/03/02 08:54:37;;;;;;;18.95;10.40;;;10.00;99.90;;;;;;4932731;29;20215;-69
2024/03/02 08:57:07;;;;;;;14.82;9.73;;;10.10;99.90;;;;;;4926128;29;20213;-69
2024/03/02 08:59:34;;;;;;;16.95;9.75;;;10.10;99.90;;;;;;4932244;29;20295;-70
2024/03/02 09:02:00;;;;;;;12.27;9.32;;;10.00;99.90;;;;;;4929572;29;20234;-69
2024/03/02 09:04:28;;;;;;;20.10;10.23;;;10.20;99.90;;;;;;4931756;29;20217;-69
2024/03/02 09:06:55;;;;;;;17.30;10.63;;;10.50;99.90;;;;;;4930964;29;20476;-69
2024/03/02 09:09:21;;;;;;;16.87;10.90;;;10.70;99.90;;;;;;4929324;28;20673;-69
2024/03/02 09:11:48;;;;;;;16.93;12.60;;;11.00;99.90;;;;;;4929505;28;20496;-69
2024/03/02 09:14:16;;;;;;;22.47;11.63;;;11.20;99.90;;;;;;4926702;29;20468;-69
2024/03/02 09:16:44;;;;;;;28.73;15.30;;;11.20;99.90;;;;;;4930154;29;20857;-69
2024/03/02 09:19:10;;;;;;;15.43;10.73;;;11.30;99.90;;;;;;4930539;29;20479;-69
2024/03/02 09:21:37;;;;;;;19.17;10.77;;;11.60;99.90;;;;;;4931042;29;20499;-69
2024/03/02 09:24:06;;;;;;;23.33;11.90;;;11.70;99.90;;;;;;4929645;29;20480;-69
2024/03/02 09:26:33;;;;;;;17.73;10.17;;;11.40;99.90;;;;;;4928578;29;20607;-69
2024/03/02 09:28:59;;;;;;;15.67;10.23;;;11.20;99.90;;;;;;4931517;29;20471;-69
2024/03/02 09:31:28;;;;;;;20.50;10.80;;;11.10;99.90;;;;;;4930167;29;20480;-69
2024/03/02 09:33:54;;;;;;;14.47;9.20;;;11.10;99.90;;;;;;4931045;29;20499;-70
2024/03/02 09:36:23;;;;;;;14.53;7.10;;;11.20;99.90;;;;;;4931706;29;20476;-70
2024/03/02 09:38:49;;;;;;;11.57;8.37;;;11.30;99.90;;;;;;4929003;29;20572;-70
2024/03/02 09:41:16;;;;;;;15.90;9.30;;;11.40;99.90;;;;;;4931694;29;20504;-70
2024/03/02 09:43:43;;;;;;;22.23;13.73;;;11.40;99.90;;;;;;4931534;29;20472;-69
2024/03/02 09:46:10;;;;;;;13.13;7.70;;;11.30;99.90;;;;;;4930633;29;20578;-72
2024/03/02 09:48:39;;;;;;;21.60;13.77;;;11.30;99.90;;;;;;4928678;29;20528;-70
2024/03/02 09:51:06;;;;;;;10.37;6.30;;;11.30;99.90;;;;;;4930660;29;20492;-70
2024/03/02 09:53:34;;;;;;;13.20;7.87;;;11.40;99.90;;;;;;4928525;29;20480;-71
2024/03/02 09:56:01;;;;;;;11.90;7.10;;;11.60;99.90;;;;;;4930611;28;20566;-70
2024/03/02 09:58:27;;;;;;;9.00;7.43;;;11.60;99.90;;;;;;4929488;29;20960;-72
2024/03/02 10:00:54;;;;;;;15.57;9.00;;;11.80;99.90;;;;;;4938241;29;20500;-70
2024/03/02 10:03:21;;;;;;;15.60;10.50;;;11.70;99.90;;;;;;4935525;29;20469;-69
2024/03/02 10:05:49;;;;;;;14.60;8.70;;;11.80;99.90;;;;;;4933081;29;20825;-69
2024/03/02 10:08:16;;;;;;;12.70;7.30;;;11.70;99.90;;;;;;4936973;29;20483;-69
2024/03/02 10:10:43;;;;;;;9.80;6.80;;;11.70;99.90;;;;;;4937873;29;20490;-69
2024/03/02 10:13:11;;;;;;;11.50;6.90;;;11.80;99.90;;;;;;4938017;29;20516;-69
2024/03/02 10:15:40;;;;;;;10.00;6.60;;;11.90;99.90;;;;;;4932061;29;20478;-69
2024/03/02 10:18:10;;;;;;;9.77;7.80;;;12.00;99.90;;;;;;4934692;29;20470;-69
2024/03/02 10:20:38;;;;;;;10.77;7.60;;;11.90;99.90;;;;;;4932194;29;20489;-69
2024/03/02 10:23:13;;;;;;;13.90;8.30;;;12.00;99.90;;;;;;4931420;29;20481;-69
2024/03/02 10:25:41;;;;;;;15.43;8.70;;;12.00;99.90;;;;;;4930446;29;20473;-70
2024/03/02 10:28:07;;;;;;;12.07;7.53;;;12.10;99.90;;;;;;4932571;29;20469;-70
2024/03/02 10:30:34;;;;;;;7.77;6.50;;;12.20;99.90;;;;;;4931366;29;20503;-69
2024/03/02 10:33:02;;;;;;;13.00;7.90;;;12.30;99.90;;;;;;4936335;29;20948;-69
2024/03/02 10:35:31;;;;;;;8.03;5.30;;;12.30;99.90;;;;;;4933643;29;20470;-69
2024/03/02 10:37:59;;;;;;;11.50;6.77;;;12.40;99.90;;;;;;4936269;29;20470;-69
2024/03/02 10:40:28;;;;;;;10.43;6.70;;;12.50;99.90;;;;;;4937484;29;20475;-69
2024/03/02 10:42:55;;;;;;;7.27;5.37;;;12.50;99.90;;;;;;4932170;29;20469;-69
2024/03/02 10:45:22;;;;;;;10.07;7.37;;;12.50;99.90;;;;;;4933357;29;20484;-69
2024/03/02 10:47:50;;;;;;;8.80;6.73;;;12.60;99.90;;;;;;4933538;29;20461;-69
2024/03/02 10:50:18;;;;;;;8.10;6.80;;;12.70;99.90;;;;;;4931406;29;20470;-69
2024/03/02 10:52:46;;;;;;;8.70;6.37;;;12.80;99.90;;;;;;4932108;29;21292;-69
2024/03/02 10:55:13;;;;;;;8.60;6.80;;;12.80;99.90;;;;;;4931387;29;20504;-69
2024/03/02 10:57:51;;;;;;;9.97;6.50;;;12.90;99.90;;;;;;4935724;29;20496;-69
2024/03/02 11:00:24;;;;;;;11.50;6.93;;;12.90;99.90;;;;;;4931334;29;20473;-69
2024/03/02 11:02:58;;;;;;;6.70;5.10;;;13.00;99.90;;;;;;4931006;29;20549;-69
2024/03/02 11:05:29;;;;;;;7.53;6.10;;;12.90;99.90;;;;;;4941806;29;20564;-69
2024/03/02 11:08:03;;;;;;;9.47;4.37;;;12.90;99.90;;;;;;4935308;29;20947;-68
2024/03/02 11:10:35;;;;;;;6.10;5.50;;;12.90;99.90;;;;;;4930744;29;20477;-68
2024/03/02 11:13:06;;;;;;;11.80;6.60;;;12.80;99.90;;;;;;4929196;29;20875;-69
2024/03/02 11:15:36;;;;;;;8.80;6.40;;;12.80;99.90;;;;;;4936601;29;20474;-70
2024/03/02 11:18:08;;;;;;;7.07;5.43;;;12.80;99.90;;;;;;4936055;29;20489;-69
2024/03/02 11:20:37;;;;;;;8.37;5.53;;;12.90;99.90;;;;;;4953683;29;20493;-70
2024/03/02 11:23:07;;;;;;;12.83;8.37;;;12.90;99.90;;;;;;4941644;29;20493;-70
2024/03/02 11:25:34;;;;;;;9.93;6.90;;;13.00;99.90;;;;;;4935802;28;20520;-69
2024/03/02 11:28:09;;;;;;;10.07;6.70;;;13.10;99.90;;;;;;4930429;29;20556;-69
2024/03/02 11:30:51;;;;;;;9.30;7.73;;;13.20;99.90;;;;;;4932417;29;20477;-69
2024/03/02 11:33:29;;;;;;;8.10;7.17;;;13.20;99.90;;;;;;4925465;29;20962;-69
2024/03/02 11:35:57;;;;;;;13.87;7.80;;;13.20;99.90;;;;;;4932289;29;20454;-69
2024/03/02 11:38:24;;;;;;;10.53;7.90;;;13.20;99.90;;;;;;4931214;29;20470;-69
2024/03/02 11:40:51;;;;;;;9.67;7.23;;;13.20;99.90;;;;;;4934147;29;20520;-69
2024/03/02 11:43:21;;;;;;;9.90;8.50;;;13.20;99.90;;;;;;4929486;29;20473;-69
2024/03/02 11:45:47;;;;;;;8.13;6.70;;;13.20;99.90;;;;;;4931197;29;20995;-69
2024/03/02 11:48:15;;;;;;;8.80;5.13;;;13.10;99.90;;;;;;4931072;29;20476;-69
2024/03/02 11:50:44;;;;;;;14.90;7.40;;;13.10;99.90;;;;;;4932822;29;20486;-69
2024/03/02 11:53:12;;;;;;;11.60;8.57;;;13.10;99.90;;;;;;4934283;29;20615;-70
2024/03/02 11:55:40;;;;;;;16.00;9.20;;;13.10;99.90;;;;;;4925730;29;20488;-70
2024/03/02 11:58:07;;;;;;;7.77;7.00;;;13.10;99.90;;;;;;4931749;29;20969;-70
2024/03/02 12:00:36;;;;;;;7.43;6.40;;;13.00;99.90;;;;;;4935309;29;20504;-69
2024/03/02 12:03:03;;;;;;;6.80;6.17;;;13.00;99.90;;;;;;4924501;29;20496;-69
2024/03/02 12:05:31;;;;;;;10.63;6.90;;;13.00;99.90;;;;;;4931711;29;20553;-69
2024/03/02 12:07:58;;;;;;;9.30;7.10;;;13.00;99.90;;;;;;4932242;29;20469;-69
2024/03/02 12:10:25;;;;;;;8.17;5.70;;;13.00;99.90;;;;;;4934543;29;20474;-69
2024/03/02 12:12:57;;;;;;;10.20;6.60;;;13.00;99.90;;;;;;4932439;29;20545;-69
2024/03/02 12:15:26;;;;;;;10.83;7.40;;;13.00;99.90;;;;;;4927753;29;20470;-69
2024/03/02 12:17:56;;;;;;;10.57;7.73;;;13.00;99.90;;;;;;4926138;29;20573;-69
2024/03/02 12:20:24;;;;;;;8.03;6.20;;;13.00;99.90;;;;;;4930993;29;20470;-69
2024/03/02 12:22:52;;;;;;;9.00;6.03;;;13.00;99.90;;;;;;4931193;29;20568;-69
2024/03/02 12:25:19;;;;;;;13.00;6.50;;;13.00;99.90;;;;;;4931625;29;20474;-69
2024/03/02 12:27:46;;;;;;;10.03;8.20;;;13.00;99.90;;;;;;4928096;29;20481;-69
2024/03/02 12:30:13;;;;;;;10.13;6.77;;;12.90;99.90;;;;;;4931838;29;20982;-70
2024/03/02 12:32:41;;;;;;;11.10;6.27;;;12.90;99.90;;;;;;4930195;29;21011;-69
2024/03/02 12:35:14;;;;;;;9.53;5.67;;;12.90;99.90;;;;;;4928007;29;20584;-70
2024/03/02 12:37:44;;;;;;;6.90;6.27;;;13.00;99.90;;;;;;4931265;29;20508;-70
2024/03/02 12:40:12;;;;;;;11.17;6.60;;;13.00;99.90;;;;;;4928439;29;20897;-70
2024/03/02 12:42:38;;;;;;;6.87;5.47;;;13.00;99.90;;;;;;4933673;29;20516;-70
2024/03/02 12:45:06;;;;;;;6.00;5.43;;;13.00;99.90;;;;;;4931056;29;20476;-70
2024/03/02 12:47:33;;;;;;;5.77;5.13;;;13.00;99.90;;;;;;4932184;29;20466;-70
2024/03/02 12:50:00;;;;;;;9.37;5.83;;;13.10;99.90;;;;;;4930131;29;20494;-71
2024/03/02 12:52:28;;;;;;;7.23;5.87;;;13.20;99.90;;;;;;4930795;29;20562;-71
2024/03/02 12:54:58;;;;;;;7.87;5.90;;;13.30;99.90;;;;;;4930970;29;20979;-71
2024/03/02 12:57:27;;;;;;;6.77;5.17;;;13.30;99.90;;;;;;4935676;29;20511;-71
2024/03/02 12:59:59;;;;;;;8.47;6.00;;;13.40;99.90;;;;;;4933067;29;20470;-71
2024/03/02 13:02:29;;;;;;;4.90;4.57;;;13.40;99.90;;;;;;4930539;29;20504;-71
2024/03/02 13:04:56;;;;;;;8.87;5.77;;;13.50;99.90;;;;;;4931676;29;20454;-71
2024/03/02 13:07:25;;;;;;;7.33;6.27;;;13.40;99.90;;;;;;4931353;29;21092;-72
2024/03/02 14:35:18;;;;;;;4.80;3.80;;;13.30;99.90;;;;;;5604878;23;20507;-69
2024/03/02 14:37:45;;;;;;;5.00;4.60;;;13.30;99.90;;;;;;4962926;28;20479;-69
2024/03/02 14:40:13;;;;;;;6.40;4.40;;;13.20;99.90;;;;;;4956651;28;20580;-69
2024/03/02 14:42:40;;;;;;;6.40;5.80;;;13.30;99.90;;;;;;4954016;28;20526;-68
2024/03/02 14:45:07;;;;;;;6.13;4.77;;;13.20;99.90;;;;;;4955519;28;20492;-69
2024/03/02 14:47:35;;;;;;;6.10;3.50;;;13.30;99.90;;;;;;4956694;28;20472;-69
2024/03/02 14:50:04;;;;;;;7.00;4.70;;;13.20;99.90;;;;;;4952394;28;20460;-69
2024/03/02 14:52:33;;;;;;;3.10;2.90;;;13.30;99.90;;;;;;4951179;28;20539;-68
2024/03/02 14:54:59;;;;;;;5.73;4.33;;;13.30;99.90;;;;;;4954567;28;20493;-70
2024/03/02 14:57:26;;;;;;;3.77;3.20;;;13.30;99.90;;;;;;4945340;28;21011;-69
2024/03/02 14:59:54;;;;;;;5.10;3.70;;;13.40;99.90;;;;;;4944782;28;20469;-68
2024/03/02 15:02:21;;;;;;;5.77;3.80;;;13.30;99.90;;;;;;4954986;28;20513;-70
2024/03/02 15:04:48;;;;;;;4.70;3.30;;;13.40;99.90;;;;;;4945218;28;20489;-68
2024/03/02 15:07:16;;;;;;;4.93;2.00;;;13.40;99.90;;;;;;4954918;28;20512;-71
2024/03/02 15:09:44;;;;;;;4.90;3.57;;;13.50;99.90;;;;;;4959954;28;20492;-70
2024/03/02 15:12:12;;;;;;;4.63;3.30;;;13.50;99.90;;;;;;4953123;28;20475;-68
2024/03/02 15:14:45;;;;;;;3.57;2.77;;;13.60;99.90;;;;;;4952742;28;20484;-70
2024/03/02 15:17:15;;;;;;;4.27;3.77;;;13.60;99.90;;;;;;4951846;28;20480;-71
2024/03/02 15:19:42;;;;;;;6.23;4.50;;;13.60;99.90;;;;;;4953338;28;20528;-71
2024/03/02 15:22:08;;;;;;;5.30;3.50;;;13.60;99.90;;;;;;4953083;28;20576;-71
2024/03/02 15:24:35;;;;;;;3.97;3.57;;;13.70;99.90;;;;;;4952724;28;20469;-71
2024/03/02 15:27:04;;;;;;;4.00;3.10;;;13.60;99.90;;;;;;4961405;28;20468;-71
2024/03/02 15:29:31;;;;;;;4.50;4.10;;;13.60;99.90;;;;;;4953265;28;20462;-71
2024/03/02 15:31:58;;;;;;;4.20;3.83;;;13.60;99.90;;;;;;4949611;28;20833;-69
2024/03/02 15:34:25;;;;;;;5.73;4.33;;;13.60;99.90;;;;;;4947265;28;20465;-71
2024/03/02 15:36:52;;;;;;;6.60;5.07;;;13.60;99.90;;;;;;4950208;28;20468;-70
2024/03/02 15:39:19;;;;;;;6.97;5.03;;;13.60;99.90;;;;;;4954809;28;20477;-71
2024/03/02 15:41:46;;;;;;;4.20;3.00;;;13.60;99.90;;;;;;4953732;28;20596;-69
2024/03/02 15:44:14;;;;;;;6.53;4.43;;;13.60;99.90;;;;;;4952031;28;20495;-70
2024/03/02 15:46:41;;;;;;;2.80;2.63;;;13.50;99.90;;;;;;4948182;28;20548;-70
2024/03/02 15:49:08;;;;;;;5.07;4.10;;;13.50;99.90;;;;;;4945428;28;20493;-71
2024/03/02 15:51:36;;;;;;;9.03;5.43;;;13.50;99.90;;;;;;4941527;28;20474;-70
2024/03/02 15:54:04;;;;;;;8.87;4.47;;;13.50;99.90;;;;;;4939590;28;20914;-71
2024/03/02 15:56:31;;;;;;;3.10;2.90;;;13.50;99.90;;;;;;4938254;28;20488;-68
2024/03/02 15:58:58;;;;;;;5.50;5.00;;;13.40;99.90;;;;;;4941360;28;20475;-71
2024/03/02 16:01:26;;;;;;;3.00;2.50;;;13.40;99.90;;;;;;4943299;28;20465;-71
2024/03/02 16:03:53;;;;;;;7.10;4.07;;;13.30;99.90;;;;;;4946171;28;20594;-70
2024/03/02 16:06:20;;;;;;;6.63;5.30;;;13.30;99.90;;;;;;4945245;28;20479;-71
2024/03/02 16:08:47;;;;;;;6.77;4.73;;;13.30;99.90;;;;;;4948901;28;20266;-70
2024/03/02 16:11:13;;;;;;;4.37;3.97;;;13.20;99.90;;;;;;4940721;28;20912;-70
2024/03/02 16:13:40;;;;;;;5.87;3.47;;;13.20;99.90;;;;;;4943204;28;20496;-69
2024/03/02 16:16:07;;;;;;;4.63;2.73;;;13.20;99.90;;;;;;4948415;28;20527;-70
2024/03/02 16:18:35;;;;;;;4.57;4.10;;;13.20;99.90;;;;;;4952573;29;20944;-71
2024/03/02 16:21:03;;;;;;;5.20;4.10;;;13.10;99.90;;;;;;4946964;28;20477;-70
2024/03/02 16:23:30;;;;;;;5.37;4.17;;;13.00;99.90;;;;;;4939905;29;20499;-70
2024/03/02 16:25:57;;;;;;;5.93;4.43;;;13.00;99.90;;;;;;4942248;28;21014;-70
2024/03/02 16:28:24;;;;;;;3.43;3.13;;;13.00;99.90;;;;;;4937303;28;20895;-71
2024/03/02 16:30:50;;;;;;;2.03;1.93;;;12.90;99.90;;;;;;4939625;28;20469;-71
2024/03/02 16:33:18;;;;;;;2.07;2.00;;;12.90;99.90;;;;;;4945663;28;20476;-70
2024/03/02 16:35:48;;;;;;;4.13;3.47;;;12.80;99.90;;;;;;4951818;28;20504;-70
2024/03/02 16:38:15;;;;;;;3.03;2.73;;;12.80;99.90;;;;;;4950137;28;20526;-71
2024/03/02 16:40:42;;;;;;;3.97;3.13;;;12.70;99.90;;;;;;4949992;29;20467;-71
2024/03/02 16:43:08;;;;;;;5.07;3.40;;;12.60;99.90;;;;;;4947736;28;20491;-71
2024/03/02 16:45:35;;;;;;;5.57;4.93;;;12.60;99.90;;;;;;4949048;28;20517;-69
2024/03/02 16:48:02;;;;;;;6.00;4.07;;;12.50;99.90;;;;;;4954422;28;20472;-70
2024/03/02 16:50:28;;;;;;;3.70;3.40;;;12.40;99.90;;;;;;4946632;28;20565;-70
2024/03/02 16:52:56;;;;;;;3.73;3.43;;;12.30;99.90;;;;;;4954200;28;20477;-68
2024/03/02 16:55:23;;;;;;;6.37;3.33;;;12.30;99.90;;;;;;4940968;28;20485;-69
2024/03/02 16:57:50;;;;;;;5.20;3.63;;;12.30;99.90;;;;;;4947473;28;20479;-70
2024/03/02 17:00:17;;;;;;;5.37;4.43;;;12.20;99.90;;;;;;4948804;28;20578;-71
2024/03/02 17:02:44;;;;;;;7.80;4.67;;;12.10;99.90;;;;;;4952628;28;20491;-70
2024/03/02 17:05:10;;;;;;;4.27;3.97;;;12.10;99.90;;;;;;4954198;28;20495;-70
2024/03/02 17:07:36;;;;;;;5.60;4.47;;;12.00;99.90;;;;;;4950326;28;20470;-70
2024/03/02 17:10:05;;;;;;;5.13;4.60;;;12.00;99.90;;;;;;4948775;28;20212;-70
2024/03/02 17:12:32;;;;;;;6.03;5.43;;;11.90;99.90;;;;;;4956190;28;20466;-69
2024/03/02 17:14:59;;;;;;;9.17;5.80;;;11.80;99.90;;;;;;4954893;28;20863;-70
2024/03/02 17:17:25;;;;;;;11.00;4.90;;;11.70;99.90;;;;;;4952744;28;20476;-70
2024/03/02 17:19:52;;;;;;;6.47;5.13;;;11.70;99.90;;;;;;4958661;28;20487;-70
2024/03/02 17:22:19;;;;;;;7.93;6.10;;;11.70;99.90;;;;;;4952399;28;20987;-69
2024/03/02 17:24:46;;;;;;;8.53;5.47;;;11.60;99.90;;;;;;4951175;28;20927;-69
2024/03/02 17:27:14;;;;;;;4.93;4.50;;;11.60;99.90;;;;;;4956270;28;20469;-70
2024/03/02 17:29:41;;;;;;;11.67;6.63;;;11.40;99.90;;;;;;4957683;28;20457;-70
2024/03/02 17:32:08;;;;;;;11.87;7.60;;;11.40;99.90;;;;;;4956301;28;20468;-69
2024/03/02 17:34:35;;;;;;;12.70;7.60;;;11.30;99.90;;;;;;4948546;28;20469;-69
2024/03/02 17:37:01;;;;;;;9.27;5.90;;;11.20;99.90;;;;;;4947988;28;20214;-70
2024/03/02 17:39:28;;;;;;;9.77;6.28;;;11.20;99.90;;;;;;4951856;28;20838;-69
2024/03/02 17:41:55;;;;;;;11.43;5.05;;;11.10;99.90;;;;;;4945016;28;20228;-69
2024/03/02 17:44:23;;;;;;;8.50;5.97;;;11.10;99.90;;;;;;4946607;28;20318;-70
2024/03/02 17:46:50;;;;;;;10.18;5.63;;;11.10;99.90;;;;;;4951507;28;20336;-70
2024/03/02 17:49:17;;;;;;;7.60;5.50;;;11.10;99.90;;;;;;4956551;28;20214;-70
2024/03/02 17:51:43;;;;;;;6.55;6.05;;;11.10;99.90;;;;;;4955692;28;20212;-70
2024/03/02 17:54:10;;;;;;;8.45;6.03;;;11.10;99.90;;;;;;4956709;28;20250;-70
2024/03/02 17:56:37;;;;;;;5.32;4.65;;;11.00;99.90;;;;;;4957694;28;20251;-70
2024/03/02 17:59:03;;;;;;;6.50;4.75;;;10.90;99.90;;;;;;4960346;28;20207;-69
2024/03/02 18:01:31;;;;;;;7.63;5.30;;;10.90;99.90;;;;;;4957296;28;20260;-70
2024/03/02 18:03:58;;;;;;;6.47;5.88;;;10.90;99.90;;;;;;4958958;28;20241;-71
2024/03/02 18:06:25;;;;;;;9.25;6.30;;;10.80;99.90;;;;;;4955504;28;20230;-70
2024/03/02 18:08:52;;;;;;;11.65;7.45;;;10.80;99.90;;;;;;4952888;28;20222;-70
2024/03/02 18:11:19;;;;;;;7.70;6.43;;;10.70;99.90;;;;;;4957537;28;20217;-69
2024/03/02 18:13:45;;;;;;;12.98;6.80;;;10.70;99.90;;;;;;4957592;28;20232;-69
2024/03/02 18:16:14;;;;;;;13.32;7.03;;;10.70;99.90;;;;;;4955214;28;20234;-70
2024/03/02 18:18:42;;;;;;;9.60;7.95;;;10.60;99.90;;;;;;4955226;28;20201;-70
2024/03/02 18:21:09;;;;;;;16.13;9.65;;;10.60;99.90;;;;;;4951870;28;20214;-68
2024/03/02 18:23:36;;;;;;;11.23;6.70;;;10.60;99.90;;;;;;4958285;28;20305;-69
2024/03/02 18:26:02;;;;;;;11.93;7.50;;;10.60;99.90;;;;;;4957977;28;20244;-72
2024/03/02 18:28:29;;;;;;;7.55;6.85;;;10.50;99.90;;;;;;4955091;28;20209;-69
2024/03/02 18:30:56;;;;;;;6.40;5.70;;;10.50;99.90;;;;;;4950521;28;20221;-69
2024/03/02 18:33:22;;;;;;;9.32;6.45;;;10.50;99.90;;;;;;4958694;29;20224;-71
2024/03/02 18:35:50;;;;;;;7.90;4.95;;;10.50;99.90;;;;;;4956935;28;20233;-70
2024/03/02 18:38:17;;;;;;;7.03;5.45;;;10.60;99.90;;;;;;4954471;28;20209;-69
2024/03/02 18:40:46;;;;;;;6.45;5.93;;;10.60;99.90;;;;;;4958334;28;20213;-70
2024/03/02 18:43:13;;;;;;;12.00;6.82;;;10.50;99.90;;;;;;4955525;28;20230;-69
2024/03/02 18:45:40;;;;;;;9.88;6.53;;;10.50;99.90;;;;;;4947014;28;20263;-69
2024/03/02 18:48:08;;;;;;;12.57;7.55;;;10.40;99.90;;;;;;4940186;28;20213;-69
2024/03/02 18:50:35;;;;;;;9.05;6.53;;;10.40;99.90;;;;;;4950012;28;20228;-69
2024/03/02 18:53:03;;;;;;;7.65;6.15;;;10.30;99.90;;;;;;4949718;28;20206;-69
2024/03/02 18:55:30;;;;;;;10.40;6.28;;;10.20;99.90;;;;;;4950135;28;20326;-69
2024/03/02 18:57:57;;;;;;;10.90;7.35;;;10.20;99.90;;;;;;4942751;28;20221;-70
2024/03/02 19:00:24;;;;;;;13.27;9.07;;;10.20;99.90;;;;;;4944426;28;20217;-69
2024/03/02 19:02:50;;;;;;;11.25;7.40;;;10.20;99.90;;;;;;4943242;28;20237;-69
2024/03/02 19:05:17;;;;;;;9.65;7.60;;;10.20;99.90;;;;;;4944638;28;20229;-70
2024/03/02 19:07:44;;;;;;;8.40;6.97;;;10.10;99.90;;;;;;4944014;28;20210;-70
2024/03/02 19:10:12;;;;;;;15.93;8.88;;;10.10;99.90;;;;;;4956337;28;20652;-70